sensor_id;sensor_type;location;lat;lon;timestamp;P1;durP1;ratioP1;P2;durP2;ratioP2
49820;SDS011;36893;52.520;13.450;2023-11-19T00:02:55;4.05;;;2.17;;
49820;SDS011;36893;52.520;13.450;2023-11-19T00:12:56;4.20;;;1.60;;
49820;SDS011;36893;52.520;13.450;2023-11-19T00:22:57;6.50;;;1.90;;
49820;SDS011;36893;52.520;13.450;2023-11-19T00:32:57;4.10;;;1.97;;
49820;SDS011;36893;52.520;13.450;2023-11-19T00:42:58;3.77;;;1.60;;
49820;SDS011;36893;52.520;13.450;2023-11-19T00:52:58;2.67;;;1.30;;
49820;SDS011;36893;52.520;13.450;2023-11-19T01:02:59;3.47;;;1.50;;
49820;SDS011;36893;52.520;13.450;2023-11-19T01:13:00;3.83;;;1.83;;
49820;SDS011;36893;52.520;13.450;2023-11-19T01:23:00;4.97;;;1.70;;
49820;SDS011;36893;52.520;13.450;2023-11-19T01:33:01;6.30;;;1.63;;
49820;SDS011;36893;52.520;13.450;2023-11-19T01:43:02;2.95;;;1.65;;
49820;SDS011;36893;52.520;13.450;2023-11-19T01:53:03;3.03;;;1.63;;
49820;SDS011;36893;52.520;13.450;2023-11-19T02:03:05;3.23;;;1.30;;
49820;SDS011;36893;52.520;13.450;2023-11-19T02:13:09;2.47;;;1.23;;
49820;SDS011;36893;52.520;13.450;2023-11-19T02:23:10;2.77;;;1.50;;
49820;SDS011;36893;52.520;13.450;2023-11-19T02:33:12;5.18;;;1.90;;
49820;SDS011;36893;52.520;13.450;2023-11-19T02:43:13;2.37;;;1.37;;
49820;SDS011;36893;52.520;13.450;2023-11-19T02:53:13;3.23;;;1.53;;
49820;SDS011;36893;52.520;13.450;2023-11-19T03:03:16;4.88;;;1.58;;
49820;SDS011;36893;52.520;13.450;2023-11-19T03:13:26;3.50;;;1.52;;
49820;SDS011;36893;52.520;13.450;2023-11-19T03:23:26;2.63;;;1.37;;
49820;SDS011;36893;52.520;13.450;2023-11-19T03:33:28;3.28;;;1.33;;
49820;SDS011;36893;52.520;13.450;2023-11-19T03:43:28;3.47;;;1.10;;
49820;SDS011;36893;52.520;13.450;2023-11-19T03:53:31;2.33;;;1.40;;
49820;SDS011;36893;52.520;13.450;2023-11-19T04:03:32;2.20;;;1.17;;
49820;SDS011;36893;52.520;13.450;2023-11-19T04:13:33;3.70;;;1.40;;
49820;SDS011;36893;52.520;13.450;2023-11-19T04:23:33;6.43;;;1.30;;
49820;SDS011;36893;52.520;13.450;2023-11-19T04:33:34;1.87;;;1.03;;
49820;SDS011;36893;52.520;13.450;2023-11-19T04:43:35;3.57;;;1.30;;
49820;SDS011;36893;52.520;13.450;2023-11-19T04:53:36;3.38;;;1.20;;
49820;SDS011;36893;52.520;13.450;2023-11-19T05:03:36;4.00;;;1.25;;
49820;SDS011;36893;52.520;13.450;2023-11-19T05:13:37;2.83;;;1.57;;
49820;SDS011;36893;52.520;13.450;2023-11-19T05:23:38;1.20;;;0.82;;
49820;SDS011;36893;52.520;13.450;2023-11-19T05:33:39;1.80;;;0.97;;
49820;SDS011;36893;52.520;13.450;2023-11-19T05:43:39;2.47;;;1.07;;
49820;SDS011;36893;52.520;13.450;2023-11-19T05:53:40;2.00;;;1.25;;
49820;SDS011;36893;52.520;13.450;2023-11-19T06:03:41;4.37;;;1.30;;
49820;SDS011;36893;52.520;13.450;2023-11-19T06:13:43;2.33;;;1.10;;
49820;SDS011;36893;52.520;13.450;2023-11-19T06:23:44;2.30;;;1.13;;
49820;SDS011;36893;52.520;13.450;2023-11-19T06:33:45;1.40;;;1.00;;
49820;SDS011;36893;52.520;13.450;2023-11-19T06:43:46;2.10;;;1.00;;
49820;SDS011;36893;52.520;13.450;2023-11-19T06:53:47;1.97;;;1.10;;
49820;SDS011;36893;52.520;13.450;2023-11-19T07:03:48;3.37;;;1.13;;
49820;SDS011;36893;52.520;13.450;2023-11-19T07:13:48;4.32;;;1.30;;
49820;SDS011;36893;52.520;13.450;2023-11-19T07:23:49;3.00;;;1.20;;
49820;SDS011;36893;52.520;13.450;2023-11-19T07:33:51;2.92;;;1.20;;
49820;SDS011;36893;52.520;13.450;2023-11-19T07:43:52;2.70;;;1.13;;
49820;SDS011;36893;52.520;13.450;2023-11-19T07:53:53;2.45;;;0.95;;
49820;SDS011;36893;52.520;13.450;2023-11-19T08:03:54;1.83;;;0.80;;
49820;SDS011;36893;52.520;13.450;2023-11-19T08:13:54;2.73;;;1.30;;
49820;SDS011;36893;52.520;13.450;2023-11-19T08:23:55;2.40;;;1.00;;
49820;SDS011;36893;52.520;13.450;2023-11-19T08:33:55;2.40;;;1.10;;
49820;SDS011;36893;52.520;13.450;2023-11-19T08:43:56;2.67;;;1.30;;
49820;SDS011;36893;52.520;13.450;2023-11-19T08:53:57;3.23;;;1.10;;
49820;SDS011;36893;52.520;13.450;2023-11-19T09:03:57;2.90;;;1.03;;
49820;SDS011;36893;52.520;13.450;2023-11-19T09:13:58;2.27;;;1.30;;
49820;SDS011;36893;52.520;13.450;2023-11-19T09:23:59;6.90;;;1.33;;
49820;SDS011;36893;52.520;13.450;2023-11-19T09:33:59;3.27;;;1.20;;
49820;SDS011;36893;52.520;13.450;2023-11-19T09:44:01;3.10;;;1.48;;
49820;SDS011;36893;52.520;13.450;2023-11-19T09:54:01;1.83;;;0.90;;
49820;SDS011;36893;52.520;13.450;2023-11-19T10:04:02;9.68;;;1.30;;
49820;SDS011;36893;52.520;13.450;2023-11-19T10:14:03;5.82;;;1.48;;
49820;SDS011;36893;52.520;13.450;2023-11-19T10:24:04;3.03;;;1.25;;
49820;SDS011;36893;52.520;13.450;2023-11-19T10:34:08;3.88;;;1.23;;
49820;SDS011;36893;52.520;13.450;2023-11-19T10:44:32;6.15;;;1.30;;
49820;SDS011;36893;52.520;13.450;2023-11-19T10:54:35;4.20;;;1.67;;
49820;SDS011;36893;52.520;13.450;2023-11-19T11:04:40;2.20;;;1.23;;
49820;SDS011;36893;52.520;13.450;2023-11-19T11:14:42;3.40;;;1.52;;
49820;SDS011;36893;52.520;13.450;2023-11-19T11:25:01;3.07;;;1.20;;
49820;SDS011;36893;52.520;13.450;2023-11-19T11:35:27;4.13;;;1.50;;
49820;SDS011;36893;52.520;13.450;2023-11-19T11:45:41;4.47;;;1.63;;
49820;SDS011;36893;52.520;13.450;2023-11-19T12:05:49;8.18;;;3.60;;
49820;SDS011;36893;52.520;13.450;2023-11-19T12:25:57;13.32;;;4.88;;
49820;SDS011;36893;52.520;13.450;2023-11-19T12:35:58;15.10;;;5.70;;
49820;SDS011;36893;52.520;13.450;2023-11-19T12:56:21;18.60;;;6.70;;
49820;SDS011;36893;52.520;13.450;2023-11-19T13:06:22;27.00;;;5.20;;
49820;SDS011;36893;52.520;13.450;2023-11-19T13:16:23;15.63;;;5.87;;
49820;SDS011;36893;52.520;13.450;2023-11-19T13:26:25;19.23;;;6.10;;
49820;SDS011;36893;52.520;13.450;2023-11-19T13:36:26;10.60;;;4.90;;
49820;SDS011;36893;52.520;13.450;2023-11-19T13:46:26;12.37;;;5.27;;
49820;SDS011;36893;52.520;13.450;2023-11-19T13:56:27;12.73;;;5.27;;
49820;SDS011;36893;52.520;13.450;2023-11-19T14:06:28;11.70;;;5.37;;
49820;SDS011;36893;52.520;13.450;2023-11-19T14:16:29;10.90;;;4.55;;
49820;SDS011;36893;52.520;13.450;2023-11-19T14:26:31;16.58;;;5.65;;
49820;SDS011;36893;52.520;13.450;2023-11-19T14:36:32;14.50;;;5.07;;
49820;SDS011;36893;52.520;13.450;2023-11-19T14:46:32;12.23;;;5.53;;
49820;SDS011;36893;52.520;13.450;2023-11-19T14:56:33;11.32;;;4.95;;
49820;SDS011;36893;52.520;13.450;2023-11-19T15:06:34;10.80;;;4.60;;
49820;SDS011;36893;52.520;13.450;2023-11-19T15:16:34;13.40;;;5.40;;
49820;SDS011;36893;52.520;13.450;2023-11-19T15:26:35;10.95;;;5.40;;
49820;SDS011;36893;52.520;13.450;2023-11-19T15:36:37;14.80;;;5.85;;
49820;SDS011;36893;52.520;13.450;2023-11-19T15:46:39;10.97;;;5.63;;
49820;SDS011;36893;52.520;13.450;2023-11-19T16:06:42;11.60;;;6.53;;
49820;SDS011;36893;52.520;13.450;2023-11-19T16:16:43;13.93;;;5.22;;
49820;SDS011;36893;52.520;13.450;2023-11-19T16:26:44;13.07;;;5.45;;
49820;SDS011;36893;52.520;13.450;2023-11-19T16:36:45;16.48;;;6.53;;
49820;SDS011;36893;52.520;13.450;2023-11-19T16:46:45;15.17;;;6.47;;
49820;SDS011;36893;52.520;13.450;2023-11-19T16:56:46;15.77;;;6.07;;
49820;SDS011;36893;52.520;13.450;2023-11-19T17:06:47;10.88;;;5.85;;
49820;SDS011;36893;52.520;13.450;2023-11-19T17:16:48;11.77;;;5.70;;
49820;SDS011;36893;52.520;13.450;2023-11-19T17:26:48;13.43;;;5.87;;
49820;SDS011;36893;52.520;13.450;2023-11-19T17:36:50;15.35;;;6.30;;
49820;SDS011;36893;52.520;13.450;2023-11-19T17:46:50;11.07;;;6.03;;
49820;SDS011;36893;52.520;13.450;2023-11-19T17:56:51;10.03;;;5.60;;
49820;SDS011;36893;52.520;13.450;2023-11-19T18:06:52;17.43;;;6.67;;
49820;SDS011;36893;52.520;13.450;2023-11-19T18:16:53;13.40;;;5.75;;
49820;SDS011;36893;52.520;13.450;2023-11-19T18:26:53;9.63;;;6.03;;
49820;SDS011;36893;52.520;13.450;2023-11-19T18:36:54;13.70;;;6.37;;
49820;SDS011;36893;52.520;13.450;2023-11-19T18:46:54;13.70;;;6.80;;
49820;SDS011;36893;52.520;13.450;2023-11-19T18:56:57;12.27;;;5.50;;
49820;SDS011;36893;52.520;13.450;2023-11-19T19:06:58;12.63;;;6.03;;
49820;SDS011;36893;52.520;13.450;2023-11-19T19:17:01;13.30;;;6.57;;
49820;SDS011;36893;52.520;13.450;2023-11-19T19:27:03;11.85;;;5.97;;
49820;SDS011;36893;52.520;13.450;2023-11-19T19:37:04;13.50;;;6.50;;
49820;SDS011;36893;52.520;13.450;2023-11-19T19:47:06;11.40;;;5.70;;
49820;SDS011;36893;52.520;13.450;2023-11-19T19:57:07;11.30;;;5.80;;
49820;SDS011;36893;52.520;13.450;2023-11-19T20:07:08;13.38;;;6.10;;
49820;SDS011;36893;52.520;13.450;2023-11-19T20:17:09;13.48;;;5.80;;
49820;SDS011;36893;52.520;13.450;2023-11-19T20:27:11;11.80;;;6.55;;
49820;SDS011;36893;52.520;13.450;2023-11-19T20:37:16;9.52;;;5.18;;
49820;SDS011;36893;52.520;13.450;2023-11-19T20:47:17;11.10;;;5.47;;
49820;SDS011;36893;52.520;13.450;2023-11-19T20:57:17;11.63;;;4.97;;
49820;SDS011;36893;52.520;13.450;2023-11-19T21:07:18;12.93;;;5.47;;
49820;SDS011;36893;52.520;13.450;2023-11-19T21:17:18;9.53;;;4.50;;
49820;SDS011;36893;52.520;13.450;2023-11-19T21:27:19;9.60;;;4.60;;
49820;SDS011;36893;52.520;13.450;2023-11-19T21:37:22;11.90;;;5.13;;
49820;SDS011;36893;52.520;13.450;2023-11-19T21:47:22;8.73;;;5.20;;
49820;SDS011;36893;52.520;13.450;2023-11-19T21:57:23;9.20;;;4.50;;
49820;SDS011;36893;52.520;13.450;2023-11-19T22:07:24;10.57;;;5.13;;
49820;SDS011;36893;52.520;13.450;2023-11-19T22:17:25;8.00;;;4.23;;
49820;SDS011;36893;52.520;13.450;2023-11-19T22:27:26;7.78;;;3.83;;
49820;SDS011;36893;52.520;13.450;2023-11-19T22:37:27;8.43;;;4.38;;
49820;SDS011;36893;52.520;13.450;2023-11-19T22:47:28;10.18;;;4.65;;
49820;SDS011;36893;52.520;13.450;2023-11-19T22:57:29;8.07;;;3.63;;
49820;SDS011;36893;52.520;13.450;2023-11-19T23:07:29;7.43;;;3.83;;
49820;SDS011;36893;52.520;13.450;2023-11-19T23:17:30;7.15;;;3.08;;
49820;SDS011;36893;52.520;13.450;2023-11-19T23:27:31;9.27;;;3.63;;
49820;SDS011;36893;52.520;13.450;2023-11-19T23:37:32;6.50;;;3.08;;
49820;SDS011;36893;52.520;13.450;2023-11-19T23:47:33;6.60;;;3.47;;
49820;SDS011;36893;52.520;13.450;2023-11-19T23:57:34;9.20;;;3.40;;
